This is the latest recevied weather packets stored in our database for station/object WA7CUG. If no packets are shown the sender has not sent any weather packets the latest 1 day(s).
| Time | Temp. | Humidity | Pressure | Rain* | Wind** | Luminosity | Snow |
|---|---|---|---|---|---|---|---|
| 1836274778 | 20° C | 50% | 1011.7 hPa | 0 mm | 0 m/s | 0 W/m² | - |
| 1836274477 | 18.89° C | 53% | 1011.5 hPa | 0 mm | 0.89 m/s, 209° | 0 W/m² | - |
| 1836274330 | 20° C | 51% | 1011.8 hPa | 0 mm | 0 m/s | 0 W/m² | - |
| 1836274175 | 20° C | 58% | 1011.5 hPa | 0 mm | 0 m/s | 0 W/m² | - |
| 1836273875 | 20° C | 52% | 1011.1 hPa | 0 mm | 0.45 m/s, 179° | 0 W/m² | - |
| 1778058849 | 15.56° C | 61% | 1011.4 hPa | 0 mm | 0.45 m/s, 169° | 0 W/m² | - |
| 1778058546 | 15.56° C | 62% | 1011.7 hPa | 0 mm | 0 m/s | 0 W/m² | - |
| 1778058244 | 15.56° C | 61% | 1011.7 hPa | 0 mm | 0.45 m/s, 173° | 0 W/m² | - |
| 1778057940 | 16.11° C | 60% | 1011.8 hPa | 0 mm | 0 m/s | 0 W/m² | - |
| 1778057637 | 16.67° C | 59% | 1011.7 hPa | 0 mm | 0 m/s | 0 W/m² | - |
| 1778057333 | 16.67° C | 58% | 1011.8 hPa | 0 mm | 0 m/s | 0 W/m² | - |
| 1778057030 | 16.67° C | 58% | 1011.8 hPa | 0 mm | 0.89 m/s, 207° | 0 W/m² | - |
| 1778056726 | 16.67° C | 57% | 1011.7 hPa | 0 mm | 1.34 m/s, 202° | 0 W/m² | - |
| 1778056424 | 17.22° C | 57% | 1011.7 hPa | 0 mm | 0.45 m/s, 211° | 0 W/m² | - |
| 1778056121 | 17.22° C | 57% | 1011.8 hPa | 0 mm | 0.89 m/s, 196° | 0 W/m² | - |
| 1778055818 | 17.22° C | 56% | 1011.5 hPa | 0 mm | 0.45 m/s, 175° | 0 W/m² | - |
| 1778055514 | 17.22° C | 57% | 1011.5 hPa | 0 mm | 0 m/s | 0 W/m² | - |
| 1778055212 | 16.67° C | 56% | 1011.5 hPa | 0 mm | 0.45 m/s, 201° | 0 W/m² | - |
| 1778054909 | 16.67° C | 57% | 1011.4 hPa | 0 mm | 0.89 m/s, 220° | 0 W/m² | - |
| 1778054605 | 16.67° C | 58% | 1011.7 hPa | 0 mm | 0.45 m/s, 181° | 0 W/m² | - |
| 1778054304 | 16.67° C | 57% | 1011.5 hPa | 0 mm | 1.34 m/s, 169° | 0 W/m² | - |
| 1778054001 | 16.11° C | 60% | 1011.2 hPa | 0 mm | 0.89 m/s, 194° | 0 W/m² | - |
| 1778053698 | 15° C | 61% | 1011.2 hPa | 0 mm | 1.79 m/s, 147° | 0 W/m² | - |
| 1778053395 | 15° C | 67% | 1011.1 hPa | 0 mm | 0 m/s | 0 W/m² | - |
| 1778053092 | 15.56° C | 61% | 1010.8 hPa | 0 mm | 0 m/s | 0 W/m² | - |
* Rain latest hour (hover to see other rain measurements)
** Current wind speed in m/s (hover to see current wind gust speed)